createdAt,value
2022-08-02T00:01:31.911Z,1011.5
2022-08-02T00:03:10.663Z,1011.6
2022-08-02T00:04:49.419Z,1011.5
2022-08-02T00:06:28.161Z,1011.6
2022-08-02T00:08:06.927Z,1011.6
2022-08-02T00:09:45.665Z,1011.6
2022-08-02T00:11:24.417Z,1011.6
2022-08-02T00:13:03.164Z,1011.6
2022-08-02T00:14:41.917Z,1011.6
2022-08-02T00:15:49.216Z,1011.7
2022-08-02T00:16:56.518Z,1011.8
2022-08-02T00:18:35.276Z,1011.7
2022-08-02T00:20:14.030Z,1011.8
2022-08-02T00:21:52.775Z,1011.8
2022-08-02T00:23:31.532Z,1011.7
2022-08-02T00:25:10.285Z,1011.7
2022-08-02T00:26:49.039Z,1011.7
2022-08-02T00:28:27.791Z,1011.7
2022-08-02T00:30:06.548Z,1011.7
2022-08-02T00:31:45.298Z,1011.7
2022-08-02T00:32:52.596Z,1011.7
2022-08-02T00:33:59.899Z,1011.8
2022-08-02T00:35:38.607Z,1011.7
2022-08-02T00:37:17.367Z,1011.7
2022-08-02T00:38:56.105Z,1011.7
2022-08-02T00:40:34.859Z,1011.7
2022-08-02T00:42:13.617Z,1011.7
2022-08-02T00:43:52.368Z,1011.7
2022-08-02T00:45:31.123Z,1011.7
2022-08-02T00:47:09.874Z,1011.7
2022-08-02T00:48:48.639Z,1011.7
2022-08-02T00:49:55.932Z,1011.6
2022-08-02T00:51:03.220Z,1011.6
2022-08-02T00:52:41.972Z,1011.6
2022-08-02T00:54:20.731Z,1011.6
2022-08-02T00:55:59.476Z,1011.6
2022-08-02T00:57:38.234Z,1011.6
2022-08-02T00:59:16.994Z,1011.5
2022-08-02T01:00:55.744Z,1011.6
2022-08-02T01:02:34.497Z,1011.6
2022-08-02T01:04:13.253Z,1011.6
2022-08-02T01:05:52.007Z,1011.7
2022-08-02T01:06:59.301Z,1011.7
2022-08-02T01:08:06.607Z,1011.7
2022-08-02T01:09:45.361Z,1011.7
2022-08-02T01:11:24.066Z,1011.6
2022-08-02T01:13:02.817Z,1011.6
2022-08-02T01:14:41.580Z,1011.6
2022-08-02T01:16:20.309Z,1011.6
2022-08-02T01:17:59.068Z,1011.6
2022-08-02T01:19:37.822Z,1011.6
2022-08-02T01:21:16.583Z,1011.6
2022-08-02T01:22:55.332Z,1011.6
2022-08-02T01:24:02.631Z,1011.6
2022-08-02T01:25:09.932Z,1011.6
2022-08-02T01:26:48.621Z,1011.6
2022-08-02T01:28:27.371Z,1011.7
2022-08-02T01:30:06.121Z,1011.6
2022-08-02T01:31:44.858Z,1011.6
2022-08-02T01:33:23.606Z,1011.6
2022-08-02T01:35:02.347Z,1011.6
2022-08-02T01:36:41.098Z,1011.6
2022-08-02T01:38:19.856Z,1011.6
2022-08-02T01:39:58.611Z,1011.5
2022-08-02T01:41:05.904Z,1011.6
2022-08-02T01:42:13.208Z,1011.5
2022-08-02T01:43:51.956Z,1011.5
2022-08-02T01:45:30.711Z,1011.5
2022-08-02T01:47:09.457Z,1011.5
2022-08-02T01:48:48.205Z,1011.5
2022-08-02T01:50:26.948Z,1011.5
2022-08-02T01:52:05.706Z,1011.5
2022-08-02T01:53:44.454Z,1011.5
2022-08-02T01:55:23.199Z,1011.6
2022-08-02T01:57:01.965Z,1011.6
2022-08-02T01:58:09.253Z,1011.6
2022-08-02T01:59:16.557Z,1011.6
2022-08-02T02:00:55.315Z,1011.6
2022-08-02T02:02:34.054Z,1011.6
2022-08-02T02:04:12.790Z,1011.6
2022-08-02T02:05:51.548Z,1011.5
2022-08-02T02:07:30.297Z,1011.5
2022-08-02T02:09:09.043Z,1011.5
2022-08-02T02:10:47.785Z,1011.5
2022-08-02T02:12:26.544Z,1011.4
2022-08-02T02:14:05.279Z,1011.4
2022-08-02T02:15:12.574Z,1011.5
2022-08-02T02:16:19.867Z,1011.4
2022-08-02T02:17:58.618Z,1011.4
2022-08-02T02:19:37.372Z,1011.4
2022-08-02T02:21:16.126Z,1011.4
2022-08-02T02:22:54.875Z,1011.3
2022-08-02T02:24:33.633Z,1011.3
2022-08-02T02:26:12.393Z,1011.3
2022-08-02T02:27:51.148Z,1011.3
2022-08-02T02:29:29.906Z,1011.2
2022-08-02T02:31:08.655Z,1011.3
2022-08-02T02:32:15.970Z,1011.3
2022-08-02T02:33:23.255Z,1011.3
2022-08-02T02:35:02.019Z,1011.3
2022-08-02T02:36:40.772Z,1011.2
2022-08-02T02:38:19.530Z,1011.2
2022-08-02T02:39:58.280Z,1011.2
2022-08-02T02:41:37.030Z,1011.2
2022-08-02T02:43:15.789Z,1011.2
2022-08-02T02:44:54.539Z,1011.1
2022-08-02T02:46:33.297Z,1011.1
2022-08-02T02:48:12.060Z,1011.1
2022-08-02T02:49:19.356Z,1011.1
2022-08-02T02:50:26.653Z,1011
2022-08-02T02:52:05.412Z,1011
2022-08-02T02:53:44.168Z,1011.1
2022-08-02T02:55:22.857Z,1011.1
2022-08-02T02:57:01.613Z,1011.1
2022-08-02T02:58:40.371Z,1011
2022-08-02T03:00:19.121Z,1011
2022-08-02T03:01:57.857Z,1011.1
2022-08-02T03:03:36.612Z,1011
2022-08-02T03:05:15.319Z,1011.1
2022-08-02T03:06:22.630Z,1011.1
2022-08-02T03:07:29.927Z,1011.1
2022-08-02T03:09:08.630Z,1011.1
2022-08-02T03:10:47.343Z,1011.2
2022-08-02T03:12:26.089Z,1011.2
2022-08-02T03:14:04.838Z,1011.2
2022-08-02T03:15:43.590Z,1011.2
2022-08-02T03:17:22.356Z,1011.3
2022-08-02T03:19:01.117Z,1011.3
2022-08-02T03:20:39.854Z,1011.4
2022-08-02T03:22:18.597Z,1011.3
2022-08-02T03:23:25.900Z,1011.3
2022-08-02T03:24:33.206Z,1011.3
2022-08-02T03:26:11.903Z,1011.3
2022-08-02T03:27:50.661Z,1011.3
2022-08-02T03:29:29.412Z,1011.3
2022-08-02T03:31:08.162Z,1011.2
2022-08-02T03:32:46.927Z,1011.2
2022-08-02T03:34:25.672Z,1011.2
2022-08-02T03:36:04.435Z,1011.1
2022-08-02T03:37:43.198Z,1011.1
2022-08-02T03:39:21.942Z,1011.1
2022-08-02T03:40:29.235Z,1011.1
2022-08-02T03:41:36.546Z,1011
2022-08-02T03:43:15.271Z,1011
2022-08-02T03:44:53.993Z,1010.9
2022-08-02T03:46:32.709Z,1011
2022-08-02T03:48:11.440Z,1010.9
2022-08-02T03:49:50.149Z,1011
2022-08-02T03:51:28.874Z,1010.9
2022-08-02T03:53:07.600Z,1010.9
2022-08-02T03:54:46.297Z,1010.9
2022-08-02T03:56:25.047Z,1010.9
2022-08-02T03:57:32.309Z,1011
2022-08-02T03:58:39.580Z,1011
2022-08-02T04:00:18.329Z,1011
2022-08-02T04:01:57.090Z,1011
2022-08-02T04:03:35.827Z,1011
2022-08-02T04:05:14.578Z,1011
2022-08-02T04:06:53.277Z,1011
2022-08-02T04:08:31.976Z,1011.1
2022-08-02T04:10:10.670Z,1011
2022-08-02T04:11:49.373Z,1011.1
2022-08-02T04:13:28.124Z,1011
2022-08-02T04:14:35.396Z,1011.1
2022-08-02T04:15:42.662Z,1011.1
2022-08-02T04:17:21.419Z,1011
2022-08-02T04:19:00.160Z,1011
2022-08-02T04:20:38.910Z,1011
2022-08-02T04:22:17.673Z,1011
2022-08-02T04:23:56.367Z,1011.1
2022-08-02T04:25:35.115Z,1011
2022-08-02T04:27:13.827Z,1011
2022-08-02T04:28:52.531Z,1011.1
2022-08-02T04:30:31.242Z,1011.1
2022-08-02T04:31:38.495Z,1011.2
2022-08-02T04:32:45.751Z,1011.2
2022-08-02T04:34:24.493Z,1011.3
2022-08-02T04:36:03.235Z,1011.3
2022-08-02T04:37:41.966Z,1011.3
2022-08-02T04:39:20.707Z,1011.3
2022-08-02T04:40:59.445Z,1011.2
2022-08-02T04:42:38.174Z,1011.3
2022-08-02T04:44:16.906Z,1011.2
2022-08-02T04:45:55.664Z,1011.2
2022-08-02T04:47:34.377Z,1011.2
2022-08-02T04:48:41.647Z,1011.2
2022-08-02T04:49:48.929Z,1011.2
2022-08-02T04:51:27.667Z,1011.2
2022-08-02T04:53:06.399Z,1011.2
2022-08-02T04:54:45.133Z,1011.2
2022-08-02T04:56:23.864Z,1011.2
2022-08-02T04:58:02.594Z,1011.2
2022-08-02T04:59:41.317Z,1011.2
2022-08-02T05:01:20.055Z,1011.2
2022-08-02T05:02:58.776Z,1011.2
2022-08-02T05:04:37.508Z,1011.2
2022-08-02T05:05:44.786Z,1011.2
2022-08-02T05:06:52.055Z,1011.3
2022-08-02T05:08:30.790Z,1011.3
2022-08-02T05:10:09.511Z,1011.3
2022-08-02T05:11:48.250Z,1011.3
2022-08-02T05:13:26.980Z,1011.4
2022-08-02T05:15:05.709Z,1011.3
2022-08-02T05:16:44.435Z,1011.3
2022-08-02T05:18:23.163Z,1011.2
2022-08-02T05:20:01.905Z,1011.3
2022-08-02T05:21:40.629Z,1011.3
2022-08-02T05:22:47.897Z,1011.2
2022-08-02T05:23:55.183Z,1011.2
2022-08-02T05:25:33.915Z,1011.2
2022-08-02T05:27:12.634Z,1011.2
2022-08-02T05:28:51.356Z,1011.2
2022-08-02T05:30:30.095Z,1011.2
2022-08-02T05:32:08.839Z,1011.2
2022-08-02T05:33:47.574Z,1011.2
2022-08-02T05:35:26.303Z,1011.3
2022-08-02T05:37:05.040Z,1011.2
2022-08-02T05:38:43.774Z,1011.2
2022-08-02T05:39:51.049Z,1011.2
2022-08-02T05:40:58.308Z,1011.3
2022-08-02T05:42:37.030Z,1011.2
2022-08-02T05:44:15.753Z,1011.2
2022-08-02T05:45:54.522Z,1011.3
2022-08-02T05:47:33.237Z,1011.2
2022-08-02T05:49:11.959Z,1011.2
2022-08-02T05:50:50.695Z,1011.2
2022-08-02T05:52:29.431Z,1011.2
2022-08-02T05:54:08.157Z,1011.1
2022-08-02T05:55:46.893Z,1011.1
2022-08-02T05:56:54.153Z,1011.1
2022-08-02T05:58:01.435Z,1011.1
2022-08-02T05:59:40.147Z,1011.1
2022-08-02T06:01:18.892Z,1011.1
2022-08-02T06:02:57.618Z,1011.1
2022-08-02T06:04:36.358Z,1011.1
2022-08-02T06:06:15.098Z,1011.1
2022-08-02T06:07:53.832Z,1011.1
2022-08-02T06:09:32.571Z,1011.1
2022-08-02T06:11:11.299Z,1011.1
2022-08-02T06:12:50.047Z,1011.2
2022-08-02T06:13:57.313Z,1011.2
2022-08-02T06:15:04.583Z,1011.3
2022-08-02T06:16:43.309Z,1011.3
2022-08-02T06:18:22.039Z,1011.3
2022-08-02T06:20:00.766Z,1011.2
2022-08-02T06:21:39.493Z,1011.2
2022-08-02T06:23:18.240Z,1011.2
2022-08-02T06:24:56.958Z,1011.2
2022-08-02T06:26:35.690Z,1011.2
2022-08-02T06:28:14.430Z,1011.1
2022-08-02T06:29:53.141Z,1011
2022-08-02T06:31:00.413Z,1010.9
2022-08-02T06:32:07.675Z,1010.9
2022-08-02T06:33:46.410Z,1011
2022-08-02T06:35:25.136Z,1011
2022-08-02T06:37:03.868Z,1011.1
2022-08-02T06:38:42.604Z,1011
2022-08-02T06:40:21.339Z,1011
2022-08-02T06:42:00.076Z,1011
2022-08-02T06:43:38.797Z,1010.9
2022-08-02T06:45:17.516Z,1010.9
2022-08-02T06:46:56.259Z,1010.9
2022-08-02T06:48:03.517Z,1011
2022-08-02T06:49:10.788Z,1011
2022-08-02T06:50:49.502Z,1011
2022-08-02T06:52:28.236Z,1011
2022-08-02T06:54:06.958Z,1011
2022-08-02T06:55:45.694Z,1011.1
2022-08-02T06:57:24.439Z,1011.1
2022-08-02T06:59:03.166Z,1011.1
2022-08-02T07:00:41.906Z,1011.1
2022-08-02T07:02:20.648Z,1011.1
2022-08-02T07:03:59.365Z,1011.1
2022-08-02T07:05:06.636Z,1011
2022-08-02T07:06:13.886Z,1011
2022-08-02T07:07:52.617Z,1011
2022-08-02T07:09:31.349Z,1011.1
2022-08-02T07:11:10.057Z,1011
2022-08-02T07:12:48.785Z,1011
2022-08-02T07:14:27.516Z,1011
2022-08-02T07:16:06.210Z,1011
2022-08-02T07:17:44.915Z,1010.9
2022-08-02T07:19:23.668Z,1010.9
2022-08-02T07:21:02.359Z,1010.9
2022-08-02T07:22:09.658Z,1010.9
2022-08-02T07:23:16.902Z,1010.9
2022-08-02T07:24:55.650Z,1010.9
2022-08-02T07:26:34.425Z,1010.9
2022-08-02T07:28:13.161Z,1010.9
2022-08-02T07:29:51.889Z,1011
2022-08-02T07:31:30.590Z,1011
2022-08-02T07:33:09.298Z,1011
2022-08-02T07:34:48.029Z,1011
2022-08-02T07:36:26.736Z,1011
2022-08-02T07:38:05.460Z,1010.9
2022-08-02T07:39:12.723Z,1011
2022-08-02T07:40:19.993Z,1010.9
2022-08-02T07:41:58.695Z,1011
2022-08-02T07:43:37.446Z,1011
2022-08-02T07:45:16.226Z,1010.9
2022-08-02T07:46:54.959Z,1010.9
2022-08-02T07:48:33.712Z,1010.9
2022-08-02T07:50:12.469Z,1010.9
2022-08-02T07:51:51.181Z,1010.9
2022-08-02T07:53:29.934Z,1010.9
2022-08-02T07:55:08.681Z,1010.9
2022-08-02T07:56:15.959Z,1010.9
2022-08-02T07:57:23.205Z,1010.8
2022-08-02T07:59:01.963Z,1010.9
2022-08-02T08:00:40.697Z,1010.9
2022-08-02T08:02:19.450Z,1010.8
2022-08-02T08:03:58.185Z,1010.8
2022-08-02T08:05:36.953Z,1010.9
2022-08-02T08:07:15.667Z,1010.9
2022-08-02T08:08:54.410Z,1010.9
2022-08-02T08:10:33.178Z,1010.9
2022-08-02T08:12:11.913Z,1010.8
2022-08-02T08:14:26.442Z,1010.8
2022-08-02T08:16:05.161Z,1010.8
2022-08-02T08:17:43.912Z,1010.8
2022-08-02T08:19:22.659Z,1010.8
2022-08-02T08:21:01.392Z,1010.8
2022-08-02T08:22:40.132Z,1010.8
2022-08-02T08:24:18.872Z,1010.8
2022-08-02T08:25:57.612Z,1010.8
2022-08-02T08:27:36.348Z,1010.8
2022-08-02T08:29:15.088Z,1010.8
2022-08-02T08:30:22.346Z,1010.8
2022-08-02T08:31:29.608Z,1010.8
2022-08-02T08:33:08.353Z,1010.8
2022-08-02T08:34:47.116Z,1010.8
2022-08-02T08:36:25.839Z,1010.7
2022-08-02T08:38:04.567Z,1010.6
2022-08-02T08:39:43.304Z,1010.6
2022-08-02T08:41:22.051Z,1010.6
2022-08-02T08:43:00.801Z,1010.6
2022-08-02T08:44:39.530Z,1010.6
2022-08-02T08:46:18.268Z,1010.6
2022-08-02T08:47:25.535Z,1010.6
2022-08-02T08:48:32.790Z,1010.6
2022-08-02T08:50:11.530Z,1010.7
2022-08-02T08:51:50.279Z,1010.7
2022-08-02T08:53:29.003Z,1010.7
2022-08-02T08:55:07.759Z,1010.6
2022-08-02T08:56:46.495Z,1010.7
2022-08-02T08:58:25.246Z,1010.6
2022-08-02T09:00:03.972Z,1010.6
2022-08-02T09:01:42.715Z,1010.6
2022-08-02T09:03:21.456Z,1010.6
2022-08-02T09:04:28.742Z,1010.6
2022-08-02T09:05:35.996Z,1010.6
2022-08-02T09:07:14.738Z,1010.5
2022-08-02T09:08:53.477Z,1010.5
2022-08-02T09:10:32.238Z,1010.6
2022-08-02T09:12:10.988Z,1010.5
2022-08-02T09:13:49.743Z,1010.5
2022-08-02T09:15:28.481Z,1010.5
2022-08-02T09:17:07.230Z,1010.5
2022-08-02T09:18:45.989Z,1010.5
2022-08-02T09:20:24.737Z,1010.6
2022-08-02T09:21:32.000Z,1010.5
2022-08-02T09:22:39.302Z,1010.5
2022-08-02T09:24:18.017Z,1010.5
2022-08-02T09:25:56.762Z,1010.5
2022-08-02T09:27:35.528Z,1010.4
2022-08-02T09:29:14.260Z,1010.3
2022-08-02T09:30:53.022Z,1010.4
2022-08-02T09:32:31.770Z,1010.5
2022-08-02T09:34:10.522Z,1010.4
2022-08-02T09:35:49.271Z,1010.4
2022-08-02T09:37:28.035Z,1010.4
2022-08-02T09:38:35.291Z,1010.4
2022-08-02T09:39:42.558Z,1010.4
2022-08-02T09:41:21.317Z,1010.5
2022-08-02T09:43:00.066Z,1010.4
2022-08-02T09:44:38.816Z,1010.4
2022-08-02T09:46:17.565Z,1010.4
2022-08-02T09:47:56.327Z,1010.4
2022-08-02T09:49:35.074Z,1010.4
2022-08-02T09:51:13.828Z,1010.4
2022-08-02T09:52:52.575Z,1010.4
2022-08-02T09:54:31.340Z,1010.3
2022-08-02T09:55:38.594Z,1010.3
2022-08-02T09:56:45.863Z,1010.3
2022-08-02T09:58:24.618Z,1010.3
2022-08-02T10:00:03.365Z,1010.3
2022-08-02T10:01:42.116Z,1010.3
2022-08-02T10:03:20.862Z,1010.3
2022-08-02T10:04:59.619Z,1010.2
2022-08-02T10:06:38.376Z,1010.3
2022-08-02T10:08:17.124Z,1010.3
2022-08-02T10:09:55.843Z,1010.3
2022-08-02T10:11:34.565Z,1010.3
2022-08-02T10:12:41.818Z,1010.2
2022-08-02T10:13:49.112Z,1010.2
2022-08-02T10:15:27.847Z,1010.3
2022-08-02T10:17:06.599Z,1010.3
2022-08-02T10:18:45.323Z,1010.3
2022-08-02T10:20:24.127Z,1010.2
2022-08-02T10:22:02.854Z,1010.2
2022-08-02T10:23:41.561Z,1010.3
2022-08-02T10:25:20.314Z,1010.2
2022-08-02T10:26:59.061Z,1010.2
2022-08-02T10:28:37.813Z,1010.2
2022-08-02T10:29:45.085Z,1010.2
2022-08-02T10:30:52.340Z,1010.1
2022-08-02T10:32:31.096Z,1010.1
2022-08-02T10:34:09.848Z,1010.1
2022-08-02T10:35:48.598Z,1010.1
2022-08-02T10:37:27.344Z,1010.1
2022-08-02T10:39:06.099Z,1010.1
2022-08-02T10:40:44.864Z,1010
2022-08-02T10:42:23.578Z,1010
2022-08-02T10:44:02.341Z,1009.9
2022-08-02T10:45:41.083Z,1009.9
2022-08-02T10:46:48.344Z,1009.9
2022-08-02T10:47:55.599Z,1009.8
2022-08-02T10:49:34.344Z,1009.9
2022-08-02T10:51:13.094Z,1009.9
2022-08-02T10:52:51.837Z,1009.8
2022-08-02T10:54:30.585Z,1009.8
2022-08-02T10:56:09.327Z,1009.8
2022-08-02T10:57:48.076Z,1009.7
2022-08-02T10:59:26.826Z,1009.8
2022-08-02T11:01:05.566Z,1009.8
2022-08-02T11:02:44.328Z,1009.7
2022-08-02T11:03:51.599Z,1009.7
2022-08-02T11:04:58.863Z,1009.7
2022-08-02T11:06:37.597Z,1009.7
2022-08-02T11:08:16.342Z,1009.7
2022-08-02T11:09:55.092Z,1009.7
2022-08-02T11:11:33.834Z,1009.6
2022-08-02T11:13:12.594Z,1009.7
2022-08-02T11:14:51.363Z,1009.6
2022-08-02T11:16:30.068Z,1009.6
2022-08-02T11:18:08.822Z,1009.6
2022-08-02T11:19:47.562Z,1009.6
2022-08-02T11:20:54.821Z,1009.6
2022-08-02T11:22:02.088Z,1009.6
2022-08-02T11:23:40.829Z,1009.6
2022-08-02T11:25:19.577Z,1009.6
2022-08-02T11:26:58.314Z,1009.5
2022-08-02T11:28:37.059Z,1009.6
2022-08-02T11:30:15.807Z,1009.6
2022-08-02T11:31:54.572Z,1009.7
2022-08-02T11:33:33.291Z,1009.6
2022-08-02T11:35:12.037Z,1009.5
2022-08-02T11:36:50.772Z,1009.6
2022-08-02T11:37:58.038Z,1009.6
2022-08-02T11:39:05.289Z,1009.6
2022-08-02T11:40:44.069Z,1009.6
2022-08-02T11:42:22.771Z,1009.6
2022-08-02T11:44:01.519Z,1009.6
2022-08-02T11:45:40.262Z,1009.5
2022-08-02T11:47:19.014Z,1009.5
2022-08-02T11:48:57.745Z,1009.5
2022-08-02T11:50:36.503Z,1009.5
2022-08-02T11:52:15.228Z,1009.4
2022-08-02T11:53:53.990Z,1009.4
2022-08-02T11:55:01.245Z,1009.4
2022-08-02T11:56:08.493Z,1009.4
2022-08-02T11:57:47.240Z,1009.3
2022-08-02T11:59:25.985Z,1009.3
2022-08-02T12:01:04.744Z,1009.3
2022-08-02T12:02:43.477Z,1009.4
2022-08-02T12:04:22.229Z,1009.3
2022-08-02T12:06:00.963Z,1009.2
2022-08-02T12:07:39.706Z,1009.3
2022-08-02T12:09:18.448Z,1009.3
2022-08-02T12:10:57.180Z,1009.2
2022-08-02T12:12:04.456Z,1009.2
2022-08-02T12:13:11.715Z,1009.3
2022-08-02T12:14:50.500Z,1009.2
2022-08-02T12:16:29.194Z,1009.2
2022-08-02T12:18:07.941Z,1009.1
2022-08-02T12:19:46.691Z,1009.2
2022-08-02T12:21:25.425Z,1009.2
2022-08-02T12:23:04.169Z,1009.1
2022-08-02T12:24:42.936Z,1009.1
2022-08-02T12:26:21.681Z,1009.1
2022-08-02T12:28:00.430Z,1009.1
2022-08-02T12:29:07.697Z,1009.1
2022-08-02T12:30:14.959Z,1009.1
2022-08-02T12:31:53.709Z,1009.1
2022-08-02T12:33:32.468Z,1009.1
2022-08-02T12:35:11.215Z,1009.1
2022-08-02T12:36:49.953Z,1009.1
2022-08-02T12:38:28.692Z,1009.1
2022-08-02T12:40:07.444Z,1009.1
2022-08-02T12:41:46.195Z,1009.1
2022-08-02T12:43:24.932Z,1009.1
2022-08-02T12:45:03.679Z,1009.1
2022-08-02T12:46:10.947Z,1009.2
2022-08-02T12:47:18.212Z,1009.1
2022-08-02T12:48:56.949Z,1009.2
2022-08-02T12:50:35.707Z,1009.2
2022-08-02T12:52:14.464Z,1009.3
2022-08-02T12:53:53.188Z,1009.2
2022-08-02T12:55:31.941Z,1009.1
2022-08-02T12:57:10.685Z,1009.2
2022-08-02T12:58:49.435Z,1009.2
2022-08-02T13:00:28.167Z,1009.2
2022-08-02T13:02:06.941Z,1009.1
2022-08-02T13:03:14.192Z,1009
2022-08-02T13:04:21.454Z,1009.1
2022-08-02T13:06:00.185Z,1009
2022-08-02T13:07:38.921Z,1009
2022-08-02T13:09:17.674Z,1009
2022-08-02T13:10:56.394Z,1009
2022-08-02T13:12:35.133Z,1008.9
2022-08-02T13:14:13.882Z,1008.9
2022-08-02T13:15:52.645Z,1008.9
2022-08-02T13:17:31.359Z,1008.9
2022-08-02T13:19:10.111Z,1008.9
2022-08-02T13:20:17.366Z,1008.9
2022-08-02T13:21:24.628Z,1008.9
2022-08-02T13:23:03.365Z,1008.9
2022-08-02T13:24:42.103Z,1008.8
2022-08-02T13:26:20.844Z,1008.8
2022-08-02T13:27:59.582Z,1008.8
2022-08-02T13:29:38.321Z,1008.8
2022-08-02T13:31:17.060Z,1008.8
2022-08-02T13:32:55.807Z,1008.8
2022-08-02T13:34:34.559Z,1008.8
2022-08-02T13:36:13.295Z,1008.6
2022-08-02T13:37:20.575Z,1008.7
2022-08-02T13:38:27.829Z,1008.6
2022-08-02T13:40:06.574Z,1008.7
2022-08-02T13:41:45.315Z,1008.7
2022-08-02T13:43:24.065Z,1008.7
2022-08-02T13:45:02.798Z,1008.7
2022-08-02T13:46:41.553Z,1008.7
2022-08-02T13:48:20.292Z,1008.7
2022-08-02T13:49:59.039Z,1008.7
2022-08-02T13:51:37.790Z,1008.7
2022-08-02T13:53:16.547Z,1008.6
2022-08-02T13:54:23.795Z,1008.6
2022-08-02T13:55:31.069Z,1008.6
2022-08-02T13:57:09.816Z,1008.6
2022-08-02T13:58:48.565Z,1008.6
2022-08-02T14:00:27.319Z,1008.5
2022-08-02T14:02:06.044Z,1008.5
2022-08-02T14:03:44.791Z,1008.6
2022-08-02T14:05:23.533Z,1008.6
2022-08-02T14:07:02.277Z,1008.5
2022-08-02T14:08:41.026Z,1008.5
2022-08-02T14:10:19.757Z,1008.4
2022-08-02T14:11:27.031Z,1008.4
2022-08-02T14:12:34.296Z,1008.5
2022-08-02T14:14:13.042Z,1008.4
2022-08-02T14:15:51.779Z,1008.4
2022-08-02T14:17:30.523Z,1008.4
2022-08-02T14:19:09.260Z,1008.3
2022-08-02T14:20:48.009Z,1008.2
2022-08-02T14:22:26.753Z,1008.2
2022-08-02T14:24:05.489Z,1008.4
2022-08-02T14:25:44.239Z,1008.4
2022-08-02T14:27:22.979Z,1008.3
2022-08-02T14:28:30.227Z,1008.3
2022-08-02T14:29:37.495Z,1008.3
2022-08-02T14:31:16.236Z,1008.3
2022-08-02T14:32:54.977Z,1008.2
2022-08-02T14:34:33.738Z,1008.2
2022-08-02T14:36:12.424Z,1008.3
2022-08-02T14:37:51.137Z,1008.2
2022-08-02T14:39:29.864Z,1008.2
2022-08-02T14:41:08.589Z,1008.1
2022-08-02T14:42:47.330Z,1008.1
2022-08-02T14:44:26.052Z,1008.1
2022-08-02T14:45:33.303Z,1008.1
2022-08-02T14:46:40.569Z,1008.1
2022-08-02T14:48:19.275Z,1008
2022-08-02T14:49:57.989Z,1008.1
2022-08-02T14:51:36.684Z,1008
2022-08-02T14:53:15.423Z,1008
2022-08-02T14:54:54.169Z,1008.1
2022-08-02T14:56:32.854Z,1008
2022-08-02T14:58:11.561Z,1008
2022-08-02T14:59:50.260Z,1008
2022-08-02T15:01:28.978Z,1008
2022-08-02T15:02:36.289Z,1008
2022-08-02T15:03:43.559Z,1008
2022-08-02T15:05:22.318Z,1008
2022-08-02T15:07:01.022Z,1008
2022-08-02T15:08:39.758Z,1007.9
2022-08-02T15:10:18.478Z,1007.9
2022-08-02T15:11:57.224Z,1008
2022-08-02T15:13:35.966Z,1007.9
2022-08-02T15:15:14.713Z,1007.9
2022-08-02T15:16:53.442Z,1007.9
2022-08-02T15:18:32.175Z,1008
2022-08-02T15:19:39.437Z,1008
2022-08-02T15:20:46.694Z,1007.9
2022-08-02T15:22:25.451Z,1007.9
2022-08-02T15:24:04.172Z,1007.9
2022-08-02T15:25:42.921Z,1007.9
2022-08-02T15:27:21.665Z,1007.9
2022-08-02T15:29:00.405Z,1007.9
2022-08-02T15:30:39.138Z,1007.8
2022-08-02T15:32:17.871Z,1007.7
2022-08-02T15:33:56.587Z,1007.8
2022-08-02T15:35:35.282Z,1007.8
2022-08-02T15:36:42.592Z,1007.8
2022-08-02T15:37:49.890Z,1007.8
2022-08-02T15:39:28.620Z,1007.8
2022-08-02T15:41:07.334Z,1007.8
2022-08-02T15:42:46.070Z,1007.7
2022-08-02T15:44:24.832Z,1007.8
2022-08-02T15:46:03.538Z,1007.8
2022-08-02T15:47:42.279Z,1007.7
2022-08-02T15:49:21.025Z,1007.8
2022-08-02T15:50:59.761Z,1007.8
2022-08-02T15:52:38.504Z,1007.8
2022-08-02T15:53:45.756Z,1007.7
2022-08-02T15:54:53.046Z,1007.7
2022-08-02T15:56:31.765Z,1007.7
2022-08-02T15:58:10.511Z,1007.7
2022-08-02T15:59:49.259Z,1007.7
2022-08-02T16:01:27.978Z,1007.7
2022-08-02T16:03:06.729Z,1007.7
2022-08-02T16:04:45.426Z,1007.6
2022-08-02T16:06:24.148Z,1007.5
2022-08-02T16:08:02.887Z,1007.5
2022-08-02T16:09:41.577Z,1007.5
2022-08-02T16:10:48.830Z,1007.5
2022-08-02T16:11:56.092Z,1007.5
2022-08-02T16:13:34.810Z,1007.5
2022-08-02T16:15:13.503Z,1007.4
2022-08-02T16:16:52.214Z,1007.5
2022-08-02T16:18:30.925Z,1007.5
2022-08-02T16:20:09.639Z,1007.4
2022-08-02T16:21:48.326Z,1007.5
2022-08-02T16:23:27.037Z,1007.4
2022-08-02T16:25:05.788Z,1007.4
2022-08-02T16:26:44.488Z,1007.4
2022-08-02T16:27:51.746Z,1007.4
2022-08-02T16:28:58.995Z,1007.4
2022-08-02T16:30:37.691Z,1007.4
2022-08-02T16:32:16.392Z,1007.3
2022-08-02T16:33:55.087Z,1007.3
2022-08-02T16:35:33.810Z,1007.4
2022-08-02T16:37:12.506Z,1007.3
2022-08-02T16:38:51.219Z,1007.3
2022-08-02T16:40:29.915Z,1007.4
2022-08-02T16:42:08.640Z,1007.3
2022-08-02T16:43:47.330Z,1007.3
2022-08-02T16:44:54.568Z,1007.3
2022-08-02T16:46:01.844Z,1007.3
2022-08-02T16:47:40.546Z,1007.2
2022-08-02T16:49:19.238Z,1007.2
2022-08-02T16:50:57.932Z,1007.2
2022-08-02T16:52:36.644Z,1007.1
2022-08-02T16:54:15.359Z,1007.1
2022-08-02T16:55:54.096Z,1007
2022-08-02T16:57:32.749Z,1007
2022-08-02T16:59:11.507Z,1007
2022-08-02T17:00:50.268Z,1006.9
2022-08-02T17:01:57.515Z,1007
2022-08-02T17:03:04.766Z,1007
2022-08-02T17:04:43.554Z,1006.9
2022-08-02T17:06:22.263Z,1007
2022-08-02T17:08:01.024Z,1007
2022-08-02T17:09:39.731Z,1006.9
2022-08-02T17:11:18.439Z,1006.9
2022-08-02T17:12:57.125Z,1006.9
2022-08-02T17:14:35.834Z,1006.9
2022-08-02T17:16:14.556Z,1006.9
2022-08-02T17:17:53.323Z,1006.9
2022-08-02T17:19:00.530Z,1006.9
2022-08-02T17:20:07.882Z,1006.9
2022-08-02T17:21:46.513Z,1006.9
2022-08-02T17:23:25.205Z,1007
2022-08-02T17:25:03.900Z,1007
2022-08-02T17:26:42.612Z,1006.9
2022-08-02T17:28:21.321Z,1007
2022-08-02T17:30:00.061Z,1007
2022-08-02T17:31:38.744Z,1007.1
2022-08-02T17:33:17.457Z,1007.1
2022-08-02T17:34:56.155Z,1007.1
2022-08-02T17:36:03.411Z,1007.1
2022-08-02T17:37:10.704Z,1007.1
2022-08-02T17:38:49.379Z,1007.1
2022-08-02T17:40:28.097Z,1007.1
2022-08-02T17:42:06.837Z,1007.1
2022-08-02T17:43:45.529Z,1007.1
2022-08-02T17:45:24.233Z,1007.1
2022-08-02T17:47:02.971Z,1007
2022-08-02T17:48:41.656Z,1007
2022-08-02T17:50:20.361Z,1007
2022-08-02T17:51:59.066Z,1006.9
2022-08-02T17:53:06.321Z,1006.9
2022-08-02T17:54:13.585Z,1007
2022-08-02T17:55:52.300Z,1007
2022-08-02T17:57:30.982Z,1006.9
2022-08-02T17:59:09.728Z,1006.9
2022-08-02T18:00:48.513Z,1006.9
2022-08-02T18:02:27.250Z,1006.9
2022-08-02T18:04:05.980Z,1006.9
2022-08-02T18:05:44.707Z,1006.9
2022-08-02T18:07:23.392Z,1006.9
2022-08-02T18:09:02.101Z,1006.9
2022-08-02T18:10:09.368Z,1006.9
2022-08-02T18:11:16.606Z,1006.9
2022-08-02T18:12:55.317Z,1007
2022-08-02T18:14:34.097Z,1007
2022-08-02T18:16:12.840Z,1007
2022-08-02T18:17:51.532Z,1007
2022-08-02T18:19:30.238Z,1007
2022-08-02T18:21:08.944Z,1007.1
2022-08-02T18:22:47.676Z,1007
2022-08-02T18:24:26.425Z,1007
2022-08-02T18:26:05.166Z,1007.1
2022-08-02T18:27:12.413Z,1007.1
2022-08-02T18:28:19.643Z,1007.1
2022-08-02T18:29:58.383Z,1007.1
2022-08-02T18:31:37.083Z,1007.2
2022-08-02T18:33:15.818Z,1007.1
2022-08-02T18:34:54.584Z,1007.2
2022-08-02T18:36:33.327Z,1007.1
2022-08-02T18:38:12.061Z,1007.2
2022-08-02T18:39:50.774Z,1007.1
2022-08-02T18:41:29.493Z,1007.2
2022-08-02T18:43:08.236Z,1007.2
2022-08-02T18:44:15.475Z,1007.2
2022-08-02T18:45:22.729Z,1007.1
2022-08-02T18:47:01.490Z,1007.2
2022-08-02T18:48:40.180Z,1007.2
2022-08-02T18:50:18.927Z,1007.2
2022-08-02T18:51:57.647Z,1007.2
2022-08-02T18:53:36.362Z,1007.2
2022-08-02T18:55:15.147Z,1007.2
2022-08-02T18:56:53.859Z,1007.2
2022-08-02T18:58:32.598Z,1007.2
2022-08-02T19:00:11.295Z,1007.2
2022-08-02T19:01:18.545Z,1007.3
2022-08-02T19:02:25.828Z,1007.2
2022-08-02T19:04:04.551Z,1007.3
2022-08-02T19:05:43.256Z,1007.2
2022-08-02T19:07:22.019Z,1007.2
2022-08-02T19:09:00.739Z,1007.3
2022-08-02T19:10:39.480Z,1007.3
2022-08-02T19:12:18.195Z,1007.2
2022-08-02T19:13:56.967Z,1007.2
2022-08-02T19:15:35.717Z,1007.2
2022-08-02T19:17:14.449Z,1007.1
2022-08-02T19:18:21.679Z,1007.2
2022-08-02T19:19:28.887Z,1007.2
2022-08-02T19:21:07.647Z,1007.2
2022-08-02T19:22:46.338Z,1007.1
2022-08-02T19:24:25.021Z,1007.1
2022-08-02T19:26:03.715Z,1007.1
2022-08-02T19:27:42.497Z,1007.2
2022-08-02T19:29:21.218Z,1007.2
2022-08-02T19:30:59.914Z,1007.2
2022-08-02T19:32:38.667Z,1007.2